sensor_id;sensor_type;location;lat;lon;timestamp;temperature;humidity
12827;DHT22;66927;48.812;9.118;2023-11-19T00:02:08;8.90;99.90
12827;DHT22;66927;48.812;9.118;2023-11-19T00:04:39;8.80;99.90
12827;DHT22;66927;48.812;9.118;2023-11-19T00:07:07;8.90;99.90
12827;DHT22;66927;48.812;9.118;2023-11-19T00:09:35;8.80;99.90
12827;DHT22;66927;48.812;9.118;2023-11-19T00:12:06;8.90;99.90
12827;DHT22;66927;48.812;9.118;2023-11-19T00:14:32;8.90;99.90
12827;DHT22;66927;48.812;9.118;2023-11-19T00:16:58;8.90;99.90
12827;DHT22;66927;48.812;9.118;2023-11-19T00:19:23;9.00;99.90
12827;DHT22;66927;48.812;9.118;2023-11-19T00:21:49;9.00;99.90
12827;DHT22;66927;48.812;9.118;2023-11-19T00:24:15;9.00;99.90
12827;DHT22;66927;48.812;9.118;2023-11-19T00:26:44;9.00;99.90
12827;DHT22;66927;48.812;9.118;2023-11-19T00:29:10;9.00;99.90
12827;DHT22;66927;48.812;9.118;2023-11-19T00:31:37;9.00;99.90
12827;DHT22;66927;48.812;9.118;2023-11-19T00:34:04;9.00;99.90
12827;DHT22;66927;48.812;9.118;2023-11-19T00:36:31;9.10;99.90
12827;DHT22;66927;48.812;9.118;2023-11-19T00:38:57;9.10;99.90
12827;DHT22;66927;48.812;9.118;2023-11-19T00:41:23;9.10;99.90
12827;DHT22;66927;48.812;9.118;2023-11-19T00:43:48;9.10;99.90
12827;DHT22;66927;48.812;9.118;2023-11-19T00:46:14;9.20;99.90
12827;DHT22;66927;48.812;9.118;2023-11-19T00:48:40;9.20;99.90
12827;DHT22;66927;48.812;9.118;2023-11-19T00:51:06;9.20;99.90
12827;DHT22;66927;48.812;9.118;2023-11-19T00:53:32;9.20;99.90
12827;DHT22;66927;48.812;9.118;2023-11-19T00:55:59;9.30;99.90
12827;DHT22;66927;48.812;9.118;2023-11-19T00:58:25;9.30;99.90
12827;DHT22;66927;48.812;9.118;2023-11-19T01:00:51;9.30;99.90
12827;DHT22;66927;48.812;9.118;2023-11-19T01:03:16;9.30;99.90
12827;DHT22;66927;48.812;9.118;2023-11-19T01:05:42;9.20;99.90
12827;DHT22;66927;48.812;9.118;2023-11-19T01:08:08;9.30;99.90
12827;DHT22;66927;48.812;9.118;2023-11-19T01:10:36;9.30;99.90
12827;DHT22;66927;48.812;9.118;2023-11-19T01:13:02;9.30;99.90
12827;DHT22;66927;48.812;9.118;2023-11-19T01:15:32;9.40;99.90
12827;DHT22;66927;48.812;9.118;2023-11-19T01:17:57;9.40;99.90
12827;DHT22;66927;48.812;9.118;2023-11-19T01:20:23;9.30;99.90
12827;DHT22;66927;48.812;9.118;2023-11-19T01:22:49;9.40;99.90
12827;DHT22;66927;48.812;9.118;2023-11-19T01:25:15;9.40;99.90
12827;DHT22;66927;48.812;9.118;2023-11-19T01:27:41;9.40;99.90
12827;DHT22;66927;48.812;9.118;2023-11-19T01:30:07;9.20;99.90
12827;DHT22;66927;48.812;9.118;2023-11-19T01:32:35;9.40;99.90
12827;DHT22;66927;48.812;9.118;2023-11-19T01:35:03;9.40;99.90
12827;DHT22;66927;48.812;9.118;2023-11-19T01:37:28;9.40;99.90
12827;DHT22;66927;48.812;9.118;2023-11-19T01:39:54;9.40;99.90
12827;DHT22;66927;48.812;9.118;2023-11-19T01:42:20;9.50;99.90
12827;DHT22;66927;48.812;9.118;2023-11-19T01:45:06;9.50;99.90
12827;DHT22;66927;48.812;9.118;2023-11-19T01:47:33;9.40;99.90
12827;DHT22;66927;48.812;9.118;2023-11-19T01:49:59;9.40;99.90
12827;DHT22;66927;48.812;9.118;2023-11-19T01:52:27;9.40;99.90
12827;DHT22;66927;48.812;9.118;2023-11-19T01:54:53;9.40;99.90
12827;DHT22;66927;48.812;9.118;2023-11-19T01:57:21;9.40;99.90
12827;DHT22;66927;48.812;9.118;2023-11-19T01:59:49;9.40;99.90
12827;DHT22;66927;48.812;9.118;2023-11-19T02:02:16;9.40;99.90
12827;DHT22;66927;48.812;9.118;2023-11-19T02:04:49;9.50;99.90
12827;DHT22;66927;48.812;9.118;2023-11-19T02:07:16;9.50;99.90
12827;DHT22;66927;48.812;9.118;2023-11-19T02:09:45;9.40;99.90
12827;DHT22;66927;48.812;9.118;2023-11-19T02:12:11;9.50;99.90
12827;DHT22;66927;48.812;9.118;2023-11-19T02:14:37;9.50;99.90
12827;DHT22;66927;48.812;9.118;2023-11-19T02:17:04;9.50;99.90
12827;DHT22;66927;48.812;9.118;2023-11-19T02:19:29;9.50;99.90
12827;DHT22;66927;48.812;9.118;2023-11-19T02:21:56;9.50;99.90
12827;DHT22;66927;48.812;9.118;2023-11-19T02:24:25;9.50;99.90
12827;DHT22;66927;48.812;9.118;2023-11-19T02:27:02;9.50;99.90
12827;DHT22;66927;48.812;9.118;2023-11-19T02:29:28;9.50;99.90
12827;DHT22;66927;48.812;9.118;2023-11-19T02:31:54;9.50;99.90
12827;DHT22;66927;48.812;9.118;2023-11-19T02:34:20;9.50;99.90
12827;DHT22;66927;48.812;9.118;2023-11-19T02:36:47;9.50;99.90
12827;DHT22;66927;48.812;9.118;2023-11-19T02:39:13;9.50;99.90
12827;DHT22;66927;48.812;9.118;2023-11-19T02:41:39;9.50;99.90
12827;DHT22;66927;48.812;9.118;2023-11-19T02:44:06;9.50;99.90
12827;DHT22;66927;48.812;9.118;2023-11-19T02:46:32;9.50;99.90
12827;DHT22;66927;48.812;9.118;2023-11-19T02:48:57;9.50;99.90
12827;DHT22;66927;48.812;9.118;2023-11-19T02:51:23;9.50;99.90
12827;DHT22;66927;48.812;9.118;2023-11-19T02:53:49;9.50;99.90
12827;DHT22;66927;48.812;9.118;2023-11-19T02:56:14;9.50;99.90
12827;DHT22;66927;48.812;9.118;2023-11-19T02:58:45;9.50;99.90
12827;DHT22;66927;48.812;9.118;2023-11-19T03:01:12;9.50;99.90
12827;DHT22;66927;48.812;9.118;2023-11-19T03:03:49;9.50;99.90
12827;DHT22;66927;48.812;9.118;2023-11-19T03:06:20;9.50;99.90
12827;DHT22;66927;48.812;9.118;2023-11-19T03:08:47;9.50;99.90
12827;DHT22;66927;48.812;9.118;2023-11-19T03:11:13;9.50;99.90
12827;DHT22;66927;48.812;9.118;2023-11-19T03:13:40;9.60;99.90
12827;DHT22;66927;48.812;9.118;2023-11-19T03:16:06;9.60;99.90
12827;DHT22;66927;48.812;9.118;2023-11-19T03:18:32;9.60;99.90
12827;DHT22;66927;48.812;9.118;2023-11-19T03:20:59;9.60;99.90
12827;DHT22;66927;48.812;9.118;2023-11-19T03:23:25;9.60;99.90
12827;DHT22;66927;48.812;9.118;2023-11-19T03:25:53;9.60;99.90
12827;DHT22;66927;48.812;9.118;2023-11-19T03:28:19;9.60;99.90
12827;DHT22;66927;48.812;9.118;2023-11-19T03:30:44;9.60;99.90
12827;DHT22;66927;48.812;9.118;2023-11-19T03:33:10;9.60;99.90
12827;DHT22;66927;48.812;9.118;2023-11-19T03:35:36;9.60;99.90
12827;DHT22;66927;48.812;9.118;2023-11-19T03:38:01;9.60;99.90
12827;DHT22;66927;48.812;9.118;2023-11-19T03:40:28;9.60;99.90
12827;DHT22;66927;48.812;9.118;2023-11-19T03:42:56;9.70;99.90
12827;DHT22;66927;48.812;9.118;2023-11-19T03:45:22;9.70;99.90
12827;DHT22;66927;48.812;9.118;2023-11-19T03:47:48;9.70;99.90
12827;DHT22;66927;48.812;9.118;2023-11-19T03:50:15;9.70;99.90
12827;DHT22;66927;48.812;9.118;2023-11-19T03:52:41;9.70;99.90
12827;DHT22;66927;48.812;9.118;2023-11-19T03:55:07;9.70;99.90
12827;DHT22;66927;48.812;9.118;2023-11-19T03:57:34;9.70;99.90
12827;DHT22;66927;48.812;9.118;2023-11-19T04:00:00;9.80;99.90
12827;DHT22;66927;48.812;9.118;2023-11-19T04:02:28;9.80;99.90
12827;DHT22;66927;48.812;9.118;2023-11-19T04:04:54;9.90;99.90
12827;DHT22;66927;48.812;9.118;2023-11-19T04:07:21;9.80;99.90
12827;DHT22;66927;48.812;9.118;2023-11-19T04:09:46;9.90;99.90
12827;DHT22;66927;48.812;9.118;2023-11-19T04:12:12;9.90;99.90
12827;DHT22;66927;48.812;9.118;2023-11-19T04:14:38;9.90;99.90
12827;DHT22;66927;48.812;9.118;2023-11-19T04:17:04;9.90;99.90
12827;DHT22;66927;48.812;9.118;2023-11-19T04:19:29;10.00;99.90
12827;DHT22;66927;48.812;9.118;2023-11-19T04:21:55;10.00;99.90
12827;DHT22;66927;48.812;9.118;2023-11-19T04:24:22;10.10;99.90
12827;DHT22;66927;48.812;9.118;2023-11-19T04:26:49;10.10;99.90
12827;DHT22;66927;48.812;9.118;2023-11-19T04:29:16;10.20;99.90
12827;DHT22;66927;48.812;9.118;2023-11-19T04:31:43;10.20;99.90
12827;DHT22;66927;48.812;9.118;2023-11-19T04:34:09;10.20;99.90
12827;DHT22;66927;48.812;9.118;2023-11-19T04:36:36;10.30;99.90
12827;DHT22;66927;48.812;9.118;2023-11-19T04:39:03;10.30;99.90
12827;DHT22;66927;48.812;9.118;2023-11-19T04:42:01;10.40;99.90
12827;DHT22;66927;48.812;9.118;2023-11-19T04:44:26;10.40;99.90
12827;DHT22;66927;48.812;9.118;2023-11-19T04:46:52;10.50;99.90
12827;DHT22;66927;48.812;9.118;2023-11-19T04:49:18;10.50;99.90
12827;DHT22;66927;48.812;9.118;2023-11-19T04:51:44;10.50;99.90
12827;DHT22;66927;48.812;9.118;2023-11-19T04:54:12;10.50;99.90
12827;DHT22;66927;48.812;9.118;2023-11-19T04:56:38;10.50;99.90
12827;DHT22;66927;48.812;9.118;2023-11-19T04:59:05;10.60;99.90
12827;DHT22;66927;48.812;9.118;2023-11-19T05:01:32;10.60;99.90
12827;DHT22;66927;48.812;9.118;2023-11-19T05:03:57;10.60;99.90
12827;DHT22;66927;48.812;9.118;2023-11-19T05:06:30;10.60;99.90
12827;DHT22;66927;48.812;9.118;2023-11-19T05:08:58;10.60;99.90
12827;DHT22;66927;48.812;9.118;2023-11-19T05:11:24;10.60;99.90
12827;DHT22;66927;48.812;9.118;2023-11-19T05:13:49;10.50;99.90
12827;DHT22;66927;48.812;9.118;2023-11-19T05:16:16;10.60;99.90
12827;DHT22;66927;48.812;9.118;2023-11-19T05:18:43;10.60;99.90
12827;DHT22;66927;48.812;9.118;2023-11-19T05:21:08;10.60;99.90
12827;DHT22;66927;48.812;9.118;2023-11-19T05:23:34;10.60;99.90
12827;DHT22;66927;48.812;9.118;2023-11-19T05:26:01;10.60;99.90
12827;DHT22;66927;48.812;9.118;2023-11-19T05:28:27;10.60;99.90
12827;DHT22;66927;48.812;9.118;2023-11-19T05:30:52;10.60;99.90
12827;DHT22;66927;48.812;9.118;2023-11-19T05:33:18;10.60;99.90
12827;DHT22;66927;48.812;9.118;2023-11-19T05:35:43;10.70;99.90
12827;DHT22;66927;48.812;9.118;2023-11-19T05:38:09;10.70;99.90
12827;DHT22;66927;48.812;9.118;2023-11-19T05:40:35;10.70;99.90
12827;DHT22;66927;48.812;9.118;2023-11-19T05:43:01;10.70;99.90
12827;DHT22;66927;48.812;9.118;2023-11-19T05:45:27;10.70;99.90
12827;DHT22;66927;48.812;9.118;2023-11-19T05:47:52;10.70;99.90
12827;DHT22;66927;48.812;9.118;2023-11-19T05:50:18;10.80;99.90
12827;DHT22;66927;48.812;9.118;2023-11-19T05:52:44;10.80;99.90
12827;DHT22;66927;48.812;9.118;2023-11-19T05:55:10;10.70;99.90
12827;DHT22;66927;48.812;9.118;2023-11-19T05:57:37;10.70;99.90
12827;DHT22;66927;48.812;9.118;2023-11-19T06:00:03;10.70;99.90
12827;DHT22;66927;48.812;9.118;2023-11-19T06:02:32;10.80;99.90
12827;DHT22;66927;48.812;9.118;2023-11-19T06:04:58;10.80;99.90
12827;DHT22;66927;48.812;9.118;2023-11-19T06:07:24;10.80;99.90
12827;DHT22;66927;48.812;9.118;2023-11-19T06:09:50;10.80;99.90
12827;DHT22;66927;48.812;9.118;2023-11-19T06:12:16;10.80;99.90
12827;DHT22;66927;48.812;9.118;2023-11-19T06:14:41;10.80;99.90
12827;DHT22;66927;48.812;9.118;2023-11-19T06:17:07;10.80;99.90
12827;DHT22;66927;48.812;9.118;2023-11-19T06:19:34;10.80;99.90
12827;DHT22;66927;48.812;9.118;2023-11-19T06:21:59;10.70;99.90
12827;DHT22;66927;48.812;9.118;2023-11-19T06:24:26;10.70;99.90
12827;DHT22;66927;48.812;9.118;2023-11-19T06:26:52;10.80;99.90
12827;DHT22;66927;48.812;9.118;2023-11-19T06:29:19;10.80;99.90
12827;DHT22;66927;48.812;9.118;2023-11-19T06:31:45;10.70;99.90
12827;DHT22;66927;48.812;9.118;2023-11-19T06:34:14;10.80;99.90
12827;DHT22;66927;48.812;9.118;2023-11-19T06:36:39;10.70;99.90
12827;DHT22;66927;48.812;9.118;2023-11-19T06:39:05;10.70;99.90
12827;DHT22;66927;48.812;9.118;2023-11-19T06:41:31;10.80;99.90
12827;DHT22;66927;48.812;9.118;2023-11-19T06:43:57;10.80;99.90
12827;DHT22;66927;48.812;9.118;2023-11-19T06:46:22;10.80;99.90
12827;DHT22;66927;48.812;9.118;2023-11-19T06:48:48;10.80;99.90
12827;DHT22;66927;48.812;9.118;2023-11-19T06:51:14;10.80;99.90
12827;DHT22;66927;48.812;9.118;2023-11-19T06:53:39;10.80;99.90
12827;DHT22;66927;48.812;9.118;2023-11-19T06:56:16;10.80;99.90
12827;DHT22;66927;48.812;9.118;2023-11-19T06:58:42;10.80;99.90
12827;DHT22;66927;48.812;9.118;2023-11-19T07:01:08;10.80;99.90
12827;DHT22;66927;48.812;9.118;2023-11-19T07:03:35;10.80;99.90
12827;DHT22;66927;48.812;9.118;2023-11-19T07:06:00;10.90;99.90
12827;DHT22;66927;48.812;9.118;2023-11-19T07:08:26;10.90;99.90
12827;DHT22;66927;48.812;9.118;2023-11-19T07:10:52;10.90;99.90
12827;DHT22;66927;48.812;9.118;2023-11-19T07:13:18;10.90;99.90
12827;DHT22;66927;48.812;9.118;2023-11-19T07:15:44;10.80;99.90
12827;DHT22;66927;48.812;9.118;2023-11-19T07:18:10;10.80;99.90
12827;DHT22;66927;48.812;9.118;2023-11-19T07:20:37;10.80;99.90
12827;DHT22;66927;48.812;9.118;2023-11-19T07:23:03;10.80;99.90
12827;DHT22;66927;48.812;9.118;2023-11-19T07:25:29;10.90;99.90
12827;DHT22;66927;48.812;9.118;2023-11-19T07:27:56;10.90;99.90
12827;DHT22;66927;48.812;9.118;2023-11-19T07:30:22;10.90;99.90
12827;DHT22;66927;48.812;9.118;2023-11-19T07:32:49;11.00;99.90
12827;DHT22;66927;48.812;9.118;2023-11-19T07:35:15;11.00;99.90
12827;DHT22;66927;48.812;9.118;2023-11-19T07:37:41;11.00;99.90
12827;DHT22;66927;48.812;9.118;2023-11-19T07:40:08;11.10;99.90
12827;DHT22;66927;48.812;9.118;2023-11-19T07:42:34;11.10;99.90
12827;DHT22;66927;48.812;9.118;2023-11-19T07:44:59;11.00;99.90
12827;DHT22;66927;48.812;9.118;2023-11-19T07:47:25;11.00;99.90
12827;DHT22;66927;48.812;9.118;2023-11-19T07:49:50;11.00;99.90
12827;DHT22;66927;48.812;9.118;2023-11-19T07:52:16;11.00;99.90
12827;DHT22;66927;48.812;9.118;2023-11-19T07:54:42;11.00;99.90
12827;DHT22;66927;48.812;9.118;2023-11-19T07:57:07;11.00;99.90
12827;DHT22;66927;48.812;9.118;2023-11-19T07:59:34;11.00;99.90
12827;DHT22;66927;48.812;9.118;2023-11-19T08:02:00;11.00;99.90
12827;DHT22;66927;48.812;9.118;2023-11-19T08:04:26;11.10;99.90
12827;DHT22;66927;48.812;9.118;2023-11-19T08:06:52;11.10;99.90
12827;DHT22;66927;48.812;9.118;2023-11-19T08:09:17;11.20;99.90
12827;DHT22;66927;48.812;9.118;2023-11-19T08:11:44;11.10;99.90
12827;DHT22;66927;48.812;9.118;2023-11-19T08:14:11;11.20;99.90
12827;DHT22;66927;48.812;9.118;2023-11-19T08:16:38;11.30;99.90
12827;DHT22;66927;48.812;9.118;2023-11-19T08:19:04;11.30;99.90
12827;DHT22;66927;48.812;9.118;2023-11-19T08:21:29;11.30;99.90
12827;DHT22;66927;48.812;9.118;2023-11-19T08:23:55;11.20;99.90
12827;DHT22;66927;48.812;9.118;2023-11-19T08:26:21;11.20;99.90
12827;DHT22;66927;48.812;9.118;2023-11-19T08:28:46;11.30;99.90
12827;DHT22;66927;48.812;9.118;2023-11-19T08:31:12;11.30;99.90
12827;DHT22;66927;48.812;9.118;2023-11-19T08:33:38;11.40;99.90
12827;DHT22;66927;48.812;9.118;2023-11-19T08:36:04;11.40;99.90
12827;DHT22;66927;48.812;9.118;2023-11-19T08:38:30;11.50;99.90
12827;DHT22;66927;48.812;9.118;2023-11-19T08:40:56;11.60;99.90
12827;DHT22;66927;48.812;9.118;2023-11-19T08:43:25;11.60;99.90
12827;DHT22;66927;48.812;9.118;2023-11-19T08:45:51;11.70;99.90
12827;DHT22;66927;48.812;9.118;2023-11-19T08:48:17;11.70;99.90
12827;DHT22;66927;48.812;9.118;2023-11-19T08:50:42;11.70;99.90
12827;DHT22;66927;48.812;9.118;2023-11-19T08:53:09;11.80;99.90
12827;DHT22;66927;48.812;9.118;2023-11-19T08:55:35;11.80;99.90
12827;DHT22;66927;48.812;9.118;2023-11-19T08:58:00;11.80;99.90
12827;DHT22;66927;48.812;9.118;2023-11-19T09:00:27;11.80;99.90
12827;DHT22;66927;48.812;9.118;2023-11-19T09:02:53;11.80;99.90
12827;DHT22;66927;48.812;9.118;2023-11-19T09:05:18;11.80;99.90
12827;DHT22;66927;48.812;9.118;2023-11-19T09:07:44;11.80;99.90
12827;DHT22;66927;48.812;9.118;2023-11-19T09:10:10;11.80;99.90
12827;DHT22;66927;48.812;9.118;2023-11-19T09:12:37;11.90;99.90
12827;DHT22;66927;48.812;9.118;2023-11-19T09:15:03;12.00;99.90
12827;DHT22;66927;48.812;9.118;2023-11-19T09:17:28;12.00;99.90
12827;DHT22;66927;48.812;9.118;2023-11-19T09:19:54;12.00;99.90
12827;DHT22;66927;48.812;9.118;2023-11-19T09:22:20;12.00;99.90
12827;DHT22;66927;48.812;9.118;2023-11-19T09:24:45;12.00;99.90
12827;DHT22;66927;48.812;9.118;2023-11-19T09:27:11;12.00;99.90
12827;DHT22;66927;48.812;9.118;2023-11-19T09:29:37;11.90;99.90
12827;DHT22;66927;48.812;9.118;2023-11-19T09:32:02;11.90;99.90
12827;DHT22;66927;48.812;9.118;2023-11-19T09:34:28;11.90;99.90
12827;DHT22;66927;48.812;9.118;2023-11-19T09:36:54;11.90;99.90
12827;DHT22;66927;48.812;9.118;2023-11-19T09:39:19;11.90;99.90
12827;DHT22;66927;48.812;9.118;2023-11-19T09:41:46;11.90;99.90
12827;DHT22;66927;48.812;9.118;2023-11-19T09:44:12;11.90;99.90
12827;DHT22;66927;48.812;9.118;2023-11-19T09:46:39;11.90;99.90
12827;DHT22;66927;48.812;9.118;2023-11-19T09:49:07;12.00;99.90
12827;DHT22;66927;48.812;9.118;2023-11-19T09:51:35;12.00;99.90
12827;DHT22;66927;48.812;9.118;2023-11-19T09:54:01;12.10;99.90
12827;DHT22;66927;48.812;9.118;2023-11-19T09:56:29;12.20;99.90
12827;DHT22;66927;48.812;9.118;2023-11-19T09:58:55;12.20;99.90
12827;DHT22;66927;48.812;9.118;2023-11-19T10:01:22;12.20;99.90
12827;DHT22;66927;48.812;9.118;2023-11-19T10:03:48;12.30;99.90
12827;DHT22;66927;48.812;9.118;2023-11-19T10:06:15;12.30;99.90
12827;DHT22;66927;48.812;9.118;2023-11-19T10:08:41;12.30;99.90
12827;DHT22;66927;48.812;9.118;2023-11-19T10:11:08;12.40;99.90
12827;DHT22;66927;48.812;9.118;2023-11-19T10:13:36;12.50;99.90
12827;DHT22;66927;48.812;9.118;2023-11-19T10:18:34;12.70;99.90
12827;DHT22;66927;48.812;9.118;2023-11-19T10:21:04;12.80;99.90
12827;DHT22;66927;48.812;9.118;2023-11-19T10:23:31;12.90;99.90
12827;DHT22;66927;48.812;9.118;2023-11-19T10:26:07;13.10;99.90
12827;DHT22;66927;48.812;9.118;2023-11-19T10:28:40;13.20;99.90
12827;DHT22;66927;48.812;9.118;2023-11-19T10:31:12;13.30;99.90
12827;DHT22;66927;48.812;9.118;2023-11-19T10:33:38;13.40;99.90
12827;DHT22;66927;48.812;9.118;2023-11-19T10:36:04;13.50;99.90
12827;DHT22;66927;48.812;9.118;2023-11-19T10:38:30;13.50;99.90
12827;DHT22;66927;48.812;9.118;2023-11-19T10:40:56;13.50;99.90
12827;DHT22;66927;48.812;9.118;2023-11-19T10:43:23;13.50;99.90
12827;DHT22;66927;48.812;9.118;2023-11-19T10:45:50;13.70;99.90
12827;DHT22;66927;48.812;9.118;2023-11-19T10:48:16;13.80;99.90
12827;DHT22;66927;48.812;9.118;2023-11-19T10:50:44;13.80;99.90
12827;DHT22;66927;48.812;9.118;2023-11-19T10:53:11;14.00;99.90
12827;DHT22;66927;48.812;9.118;2023-11-19T10:55:39;14.10;99.90
12827;DHT22;66927;48.812;9.118;2023-11-19T10:58:06;14.10;99.90
12827;DHT22;66927;48.812;9.118;2023-11-19T11:00:37;14.10;99.90
12827;DHT22;66927;48.812;9.118;2023-11-19T11:03:16;14.10;99.90
12827;DHT22;66927;48.812;9.118;2023-11-19T11:05:42;14.00;99.90
12827;DHT22;66927;48.812;9.118;2023-11-19T11:08:09;14.00;99.90
12827;DHT22;66927;48.812;9.118;2023-11-19T11:10:43;14.00;99.90
12827;DHT22;66927;48.812;9.118;2023-11-19T11:13:09;14.00;99.90
12827;DHT22;66927;48.812;9.118;2023-11-19T11:15:36;13.90;99.90
12827;DHT22;66927;48.812;9.118;2023-11-19T11:18:03;13.80;99.90
12827;DHT22;66927;48.812;9.118;2023-11-19T11:20:33;13.70;99.90
12827;DHT22;66927;48.812;9.118;2023-11-19T11:26:29;13.60;99.90
12827;DHT22;66927;48.812;9.118;2023-11-19T11:29:03;13.50;99.90
12827;DHT22;66927;48.812;9.118;2023-11-19T11:39:50;13.60;99.90
12827;DHT22;66927;48.812;9.118;2023-11-19T11:45:07;14.00;99.90
12827;DHT22;66927;48.812;9.118;2023-11-19T11:48:04;14.10;99.90
12827;DHT22;66927;48.812;9.118;2023-11-19T11:50:35;14.10;99.90
12827;DHT22;66927;48.812;9.118;2023-11-19T11:55:51;13.90;99.90
12827;DHT22;66927;48.812;9.118;2023-11-19T11:58:18;13.80;99.90
12827;DHT22;66927;48.812;9.118;2023-11-19T12:00:43;13.90;99.90
12827;DHT22;66927;48.812;9.118;2023-11-19T12:03:11;14.00;99.90
12827;DHT22;66927;48.812;9.118;2023-11-19T12:05:46;14.10;99.90
12827;DHT22;66927;48.812;9.118;2023-11-19T12:08:14;14.30;99.90
12827;DHT22;66927;48.812;9.118;2023-11-19T12:10:49;14.50;99.90
12827;DHT22;66927;48.812;9.118;2023-11-19T12:13:16;14.50;99.90
12827;DHT22;66927;48.812;9.118;2023-11-19T12:18:29;14.70;99.90
12827;DHT22;66927;48.812;9.118;2023-11-19T12:20:56;14.90;99.90
12827;DHT22;66927;48.812;9.118;2023-11-19T12:23:26;14.90;99.90
12827;DHT22;66927;48.812;9.118;2023-11-19T12:25:52;14.90;99.90
12827;DHT22;66927;48.812;9.118;2023-11-19T12:28:18;14.90;99.90
12827;DHT22;66927;48.812;9.118;2023-11-19T12:30:45;14.80;99.90
12827;DHT22;66927;48.812;9.118;2023-11-19T12:33:12;14.80;99.90
12827;DHT22;66927;48.812;9.118;2023-11-19T12:35:45;14.90;99.90
12827;DHT22;66927;48.812;9.118;2023-11-19T12:38:24;15.10;99.90
12827;DHT22;66927;48.812;9.118;2023-11-19T12:41:23;15.30;99.90
12827;DHT22;66927;48.812;9.118;2023-11-19T12:43:49;15.50;99.90
12827;DHT22;66927;48.812;9.118;2023-11-19T12:46:20;15.60;99.90
12827;DHT22;66927;48.812;9.118;2023-11-19T12:48:48;15.60;99.90
12827;DHT22;66927;48.812;9.118;2023-11-19T12:51:13;15.80;99.90
12827;DHT22;66927;48.812;9.118;2023-11-19T12:53:54;15.90;99.90
12827;DHT22;66927;48.812;9.118;2023-11-19T12:56:20;16.00;99.90
12827;DHT22;66927;48.812;9.118;2023-11-19T12:58:47;16.10;99.90
12827;DHT22;66927;48.812;9.118;2023-11-19T13:01:17;16.10;99.90
12827;DHT22;66927;48.812;9.118;2023-11-19T13:03:43;16.10;99.90
12827;DHT22;66927;48.812;9.118;2023-11-19T13:06:11;16.00;99.90
12827;DHT22;66927;48.812;9.118;2023-11-19T13:08:51;16.00;99.90
12827;DHT22;66927;48.812;9.118;2023-11-19T13:11:34;15.80;99.90
12827;DHT22;66927;48.812;9.118;2023-11-19T13:14:04;15.80;99.90
12827;DHT22;66927;48.812;9.118;2023-11-19T13:16:31;15.60;99.90
12827;DHT22;66927;48.812;9.118;2023-11-19T13:18:56;15.50;99.90
12827;DHT22;66927;48.812;9.118;2023-11-19T13:21:23;15.40;99.90
12827;DHT22;66927;48.812;9.118;2023-11-19T13:23:48;15.30;99.90
12827;DHT22;66927;48.812;9.118;2023-11-19T13:26:14;15.40;99.90
12827;DHT22;66927;48.812;9.118;2023-11-19T13:28:41;15.40;99.90
12827;DHT22;66927;48.812;9.118;2023-11-19T13:31:07;15.40;99.90
12827;DHT22;66927;48.812;9.118;2023-11-19T13:33:33;15.30;99.90
12827;DHT22;66927;48.812;9.118;2023-11-19T13:35:59;15.30;99.90
12827;DHT22;66927;48.812;9.118;2023-11-19T13:38:33;15.20;99.90
12827;DHT22;66927;48.812;9.118;2023-11-19T13:41:01;15.10;99.90
12827;DHT22;66927;48.812;9.118;2023-11-19T13:43:27;15.00;99.90
12827;DHT22;66927;48.812;9.118;2023-11-19T13:45:54;15.00;99.90
12827;DHT22;66927;48.812;9.118;2023-11-19T13:48:20;15.00;99.90
12827;DHT22;66927;48.812;9.118;2023-11-19T13:50:46;15.00;99.90
12827;DHT22;66927;48.812;9.118;2023-11-19T13:53:11;15.00;99.90
12827;DHT22;66927;48.812;9.118;2023-11-19T13:55:37;15.00;99.90
12827;DHT22;66927;48.812;9.118;2023-11-19T13:58:03;15.00;99.90
12827;DHT22;66927;48.812;9.118;2023-11-19T14:00:29;14.90;99.90
12827;DHT22;66927;48.812;9.118;2023-11-19T14:02:55;14.90;99.90
12827;DHT22;66927;48.812;9.118;2023-11-19T14:05:21;14.80;99.90
12827;DHT22;66927;48.812;9.118;2023-11-19T14:07:48;14.80;99.90
12827;DHT22;66927;48.812;9.118;2023-11-19T14:10:14;14.80;99.90
12827;DHT22;66927;48.812;9.118;2023-11-19T14:12:41;14.70;99.90
12827;DHT22;66927;48.812;9.118;2023-11-19T14:15:08;14.60;99.90
12827;DHT22;66927;48.812;9.118;2023-11-19T14:17:38;14.50;99.90
12827;DHT22;66927;48.812;9.118;2023-11-19T14:20:03;14.50;99.90
12827;DHT22;66927;48.812;9.118;2023-11-19T14:22:39;14.50;99.90
12827;DHT22;66927;48.812;9.118;2023-11-19T14:25:06;14.50;99.90
12827;DHT22;66927;48.812;9.118;2023-11-19T14:27:42;14.40;99.90
12827;DHT22;66927;48.812;9.118;2023-11-19T14:30:09;14.40;99.90
12827;DHT22;66927;48.812;9.118;2023-11-19T14:32:40;14.30;99.90
12827;DHT22;66927;48.812;9.118;2023-11-19T14:35:06;14.30;99.90
12827;DHT22;66927;48.812;9.118;2023-11-19T14:37:32;14.20;99.90
12827;DHT22;66927;48.812;9.118;2023-11-19T14:39:59;14.20;99.90
12827;DHT22;66927;48.812;9.118;2023-11-19T14:42:25;14.10;99.90
12827;DHT22;66927;48.812;9.118;2023-11-19T14:44:52;14.10;99.90
12827;DHT22;66927;48.812;9.118;2023-11-19T14:47:19;14.10;99.90
12827;DHT22;66927;48.812;9.118;2023-11-19T14:49:45;14.10;99.90
12827;DHT22;66927;48.812;9.118;2023-11-19T14:52:10;14.00;99.90
12827;DHT22;66927;48.812;9.118;2023-11-19T14:54:37;14.00;99.90
12827;DHT22;66927;48.812;9.118;2023-11-19T14:57:04;14.00;99.90
12827;DHT22;66927;48.812;9.118;2023-11-19T14:59:29;14.00;99.90
12827;DHT22;66927;48.812;9.118;2023-11-19T15:01:56;14.00;99.90
12827;DHT22;66927;48.812;9.118;2023-11-19T15:04:22;14.00;99.90
12827;DHT22;66927;48.812;9.118;2023-11-19T15:06:48;13.90;99.90
12827;DHT22;66927;48.812;9.118;2023-11-19T15:09:13;13.90;99.90
12827;DHT22;66927;48.812;9.118;2023-11-19T15:11:45;13.80;99.90
12827;DHT22;66927;48.812;9.118;2023-11-19T15:14:14;13.80;99.90
12827;DHT22;66927;48.812;9.118;2023-11-19T15:16:42;13.80;99.90
12827;DHT22;66927;48.812;9.118;2023-11-19T15:19:08;13.70;99.90
12827;DHT22;66927;48.812;9.118;2023-11-19T15:21:34;13.70;99.90
12827;DHT22;66927;48.812;9.118;2023-11-19T15:24:01;13.70;99.90
12827;DHT22;66927;48.812;9.118;2023-11-19T15:26:30;13.70;99.90
12827;DHT22;66927;48.812;9.118;2023-11-19T15:28:55;13.60;99.90
12827;DHT22;66927;48.812;9.118;2023-11-19T15:31:23;13.60;99.90
12827;DHT22;66927;48.812;9.118;2023-11-19T15:33:49;13.50;99.90
12827;DHT22;66927;48.812;9.118;2023-11-19T15:36:17;13.50;99.90
12827;DHT22;66927;48.812;9.118;2023-11-19T15:38:43;13.50;99.90
12827;DHT22;66927;48.812;9.118;2023-11-19T15:41:09;13.40;99.90
12827;DHT22;66927;48.812;9.118;2023-11-19T15:43:35;13.40;99.90
12827;DHT22;66927;48.812;9.118;2023-11-19T15:46:00;13.40;99.90
12827;DHT22;66927;48.812;9.118;2023-11-19T15:48:26;13.30;99.90
12827;DHT22;66927;48.812;9.118;2023-11-19T15:50:52;13.30;99.90
12827;DHT22;66927;48.812;9.118;2023-11-19T15:53:18;13.30;99.90
12827;DHT22;66927;48.812;9.118;2023-11-19T15:55:44;13.30;99.90
12827;DHT22;66927;48.812;9.118;2023-11-19T15:58:10;13.20;99.90